createdAt,value
2019-02-24T03:34:18.030Z,85.59
2019-02-24T03:35:19.351Z,85.59
2019-02-24T03:36:18.510Z,85.30
2019-02-24T03:39:17.722Z,85.02
2019-02-24T03:40:17.449Z,85.11
2019-02-24T03:41:17.397Z,84.92
2019-02-24T03:42:17.307Z,84.83
2019-02-24T03:43:17.117Z,84.64
2019-02-24T03:44:17.157Z,84.83
2019-02-24T03:45:17.064Z,84.64
2019-02-24T03:46:16.873Z,84.92
2019-02-24T03:47:16.823Z,83.89
2019-02-24T03:48:16.800Z,83.80
2019-02-24T03:49:16.718Z,83.04
2019-02-24T03:50:16.618Z,82.76
2019-02-24T03:51:16.479Z,82.28
2019-02-24T03:52:16.351Z,81.81
2019-02-24T03:53:16.409Z,81.05
2019-02-24T03:54:16.249Z,80.96
2019-02-24T03:55:16.224Z,80.77
2019-02-24T03:56:16.095Z,80.11
2019-02-24T03:57:15.994Z,80.58
2019-02-24T03:58:15.883Z,80.77
2019-02-24T03:59:15.826Z,80.87
2019-02-24T04:00:15.712Z,80.58
2019-02-24T04:01:15.713Z,80.30
2019-02-24T04:02:15.522Z,80.87
2019-02-24T04:03:15.468Z,80.30
2019-02-24T04:04:15.337Z,80.49
2019-02-24T04:05:15.340Z,80.68
2019-02-24T04:06:15.164Z,80.96
2019-02-24T04:07:15.142Z,80.77
2019-02-24T04:08:15.011Z,80.77
2019-02-24T04:09:15.064Z,81.05
2019-02-24T04:10:14.797Z,81.53
2019-02-24T04:11:14.885Z,81.43
2019-02-24T04:12:14.659Z,80.49
2019-02-24T04:13:14.545Z,80.68
2019-02-24T04:14:14.504Z,80.77
2019-02-24T04:15:14.408Z,80.58
2019-02-24T04:16:14.348Z,80.49
2019-02-24T04:17:14.255Z,80.77
2019-02-24T04:18:14.253Z,81.24
2019-02-24T04:19:14.201Z,81.53
2019-02-24T04:20:14.085Z,81.81
2019-02-24T04:21:14.019Z,82.10
2019-02-24T04:22:13.910Z,82.00
2019-02-24T04:23:13.763Z,82.19
2019-02-24T04:24:13.580Z,82.38
2019-02-24T04:25:13.633Z,82.19
2019-02-24T04:26:13.452Z,82.85
2019-02-24T04:27:13.394Z,82.76
2019-02-24T04:28:13.358Z,83.33
2019-02-24T04:29:13.201Z,82.66
2019-02-24T04:30:13.102Z,82.00
2019-02-24T04:31:13.105Z,82.38
2019-02-24T04:32:12.970Z,82.38
2019-02-24T04:33:12.854Z,82.38
2019-02-24T04:34:13.030Z,82.85
2019-02-24T04:35:12.625Z,83.33
2019-02-24T04:36:12.628Z,83.98
2019-02-24T04:37:12.536Z,84.92
2019-02-24T04:38:12.376Z,84.92
2019-02-24T04:39:12.482Z,84.92
2019-02-24T04:40:12.248Z,84.83
2019-02-24T04:41:12.224Z,84.64
2019-02-24T04:42:12.100Z,84.64
2019-02-24T04:43:11.932Z,84.74
2019-02-24T04:44:11.896Z,84.27
2019-02-24T04:45:11.772Z,84.27
2019-02-24T04:46:11.851Z,84.45
2019-02-24T04:47:11.622Z,84.36
2019-02-24T04:48:11.680Z,84.27
2019-02-24T04:49:11.541Z,84.45
2019-02-24T04:50:11.433Z,84.36
2019-02-24T04:51:11.352Z,84.08
2019-02-24T04:52:11.352Z,84.27
2019-02-24T04:53:11.133Z,84.08
2019-02-24T04:54:11.052Z,82.76
2019-02-24T04:55:10.974Z,81.91
2019-02-24T04:56:10.936Z,81.81
2019-02-24T04:57:10.858Z,81.05
2019-02-24T04:58:10.673Z,81.05
2019-02-24T04:59:10.720Z,81.15
2019-02-24T05:00:10.603Z,82.00
2019-02-24T05:01:10.475Z,82.00
2019-02-24T05:02:10.414Z,82.57
2019-02-24T05:03:10.311Z,83.14
2019-02-24T05:04:10.125Z,83.23
2019-02-24T05:05:10.088Z,83.14
2019-02-24T05:06:09.974Z,83.23
2019-02-24T05:07:10.177Z,83.14
2019-02-24T05:08:09.939Z,83.89
2019-02-24T05:09:09.764Z,83.98
2019-02-24T05:10:09.709Z,83.98
2019-02-24T05:11:09.660Z,84.27
2019-02-24T05:12:09.454Z,84.83
2019-02-24T05:13:09.377Z,84.92
2019-02-24T05:14:09.368Z,84.83
2019-02-24T05:15:09.260Z,84.83
2019-02-24T05:16:09.077Z,84.55
2019-02-24T05:17:09.031Z,84.36
2019-02-24T05:18:08.933Z,84.08
2019-02-24T05:19:08.896Z,84.55
2019-02-24T05:20:08.761Z,84.64
2019-02-24T05:21:08.648Z,84.64
2019-02-24T05:22:08.579Z,84.64
2019-02-24T05:23:08.508Z,84.64
2019-02-24T05:24:08.414Z,84.83
2019-02-24T05:25:08.388Z,84.36
2019-02-24T05:26:08.473Z,83.98
2019-02-24T05:27:08.135Z,84.55
2019-02-24T05:28:08.023Z,83.89
2019-02-24T05:29:08.075Z,84.17
2019-02-24T05:30:07.970Z,83.80
2019-02-24T05:31:07.805Z,84.17
2019-02-24T05:32:07.749Z,84.08
2019-02-24T05:33:07.663Z,83.80
2019-02-24T05:34:07.624Z,83.98
2019-02-24T05:35:07.407Z,83.98
2019-02-24T05:36:07.326Z,83.70
2019-02-24T05:37:07.352Z,83.80
2019-02-24T05:38:07.199Z,83.89
2019-02-24T05:39:07.087Z,83.98
2019-02-24T05:40:07.035Z,84.08
2019-02-24T05:41:07.068Z,83.80
2019-02-24T05:42:06.954Z,84.17
2019-02-24T05:43:06.849Z,83.23
2019-02-24T05:44:06.633Z,83.51
2019-02-24T05:45:06.593Z,82.85
2019-02-24T05:46:06.487Z,82.95
2019-02-24T05:47:06.390Z,82.95
2019-02-24T05:48:06.451Z,83.33
2019-02-24T05:49:06.276Z,83.89
2019-02-24T05:50:06.212Z,84.27
2019-02-24T05:51:06.092Z,84.17
2019-02-24T05:52:06.053Z,84.36
2019-02-24T05:53:05.931Z,84.83
2019-02-24T05:54:05.833Z,84.83
2019-02-24T05:55:05.765Z,84.45
2019-02-24T05:56:05.677Z,84.83
2019-02-24T05:57:05.700Z,84.83
2019-02-24T05:58:05.582Z,85.68
2019-02-24T05:59:05.432Z,85.30
2019-02-24T06:00:05.294Z,85.30
2019-02-24T06:01:05.171Z,85.21
2019-02-24T06:02:05.178Z,85.21
2019-02-24T06:03:04.978Z,85.30
2019-02-24T06:04:04.959Z,85.40
2019-02-24T06:05:04.848Z,85.59
2019-02-24T06:06:04.788Z,85.40
2019-02-24T06:07:04.653Z,85.40
2019-02-24T06:08:04.558Z,85.40
2019-02-24T06:09:04.462Z,85.40
2019-02-24T06:10:04.379Z,85.30
2019-02-24T06:11:04.282Z,85.68
2019-02-24T06:12:04.199Z,84.83
2019-02-24T06:13:04.152Z,85.02
2019-02-24T06:14:04.078Z,84.92
2019-02-24T06:15:03.953Z,84.64
2019-02-24T06:16:03.858Z,84.74
2019-02-24T06:17:03.787Z,84.74
2019-02-24T06:18:03.701Z,84.74
2019-02-24T06:19:03.642Z,84.74
2019-02-24T06:20:03.524Z,84.55
2019-02-24T06:21:03.415Z,84.17
2019-02-24T06:22:03.338Z,83.89
2019-02-24T06:23:03.280Z,83.51
2019-02-24T06:24:03.205Z,83.14
2019-02-24T06:25:03.087Z,83.80
2019-02-24T06:26:03.000Z,83.70
2019-02-24T06:27:02.940Z,84.08
2019-02-24T06:28:02.823Z,84.36
2019-02-24T06:29:02.725Z,84.74
2019-02-24T06:30:05.410Z,85.02
2019-02-24T06:31:02.592Z,85.21
2019-02-24T06:32:02.472Z,84.92
2019-02-24T06:33:02.424Z,84.08
2019-02-24T06:34:02.302Z,83.80
2019-02-24T06:35:02.227Z,84.55
2019-02-24T06:36:02.183Z,84.74
2019-02-24T06:37:02.036Z,84.74
2019-02-24T06:38:01.995Z,85.21
2019-02-24T06:39:01.925Z,85.59
2019-02-24T06:40:01.778Z,85.40
2019-02-24T06:41:01.786Z,85.96
2019-02-24T06:42:01.740Z,85.59
2019-02-24T06:43:01.549Z,85.40
2019-02-24T06:44:01.514Z,85.49
2019-02-24T06:45:01.369Z,85.77
2019-02-24T06:46:01.316Z,86.06
2019-02-24T06:47:01.261Z,85.96
2019-02-24T06:48:01.132Z,86.25
2019-02-24T06:49:01.041Z,86.34
2019-02-24T06:50:01.015Z,86.06
2019-02-24T06:51:00.868Z,86.34
2019-02-24T06:52:00.791Z,85.59
2019-02-24T06:53:00.687Z,85.77
2019-02-24T06:54:00.584Z,85.49
2019-02-24T06:55:00.586Z,84.83
2019-02-24T06:56:00.432Z,84.83
2019-02-24T06:57:00.307Z,84.17
2019-02-24T06:58:00.255Z,84.27
2019-02-24T06:59:00.129Z,84.27
2019-02-24T07:00:00.039Z,84.27
2019-02-24T07:01:00.052Z,84.45
2019-02-24T07:01:59.876Z,84.17
2019-02-24T07:02:59.800Z,84.27
2019-02-24T07:03:59.740Z,84.36
2019-02-24T07:04:59.649Z,84.45
2019-02-24T07:05:59.552Z,84.17
2019-02-24T07:06:59.468Z,84.64
2019-02-24T07:07:59.378Z,84.74
2019-02-24T07:08:59.316Z,84.74
2019-02-24T07:09:59.286Z,84.74
2019-02-24T07:10:59.088Z,84.55
2019-02-24T07:11:59.050Z,84.74
2019-02-24T07:12:58.975Z,84.74
2019-02-24T07:13:58.867Z,84.83
2019-02-24T07:14:58.782Z,84.27
2019-02-24T07:15:58.657Z,83.70
2019-02-24T07:16:58.601Z,83.23
2019-02-24T07:17:58.554Z,83.17
2019-02-24T07:18:58.548Z,82.70
2019-02-24T07:19:58.402Z,82.70
2019-02-24T07:20:58.272Z,82.89
2019-02-24T07:21:58.191Z,82.80
2019-02-24T07:22:58.086Z,82.80
2019-02-24T07:23:57.996Z,82.61
2019-02-24T07:24:57.945Z,82.80
2019-02-24T07:25:57.826Z,83.08
2019-02-24T07:26:57.774Z,83.65
2019-02-24T07:27:57.659Z,83.84
2019-02-24T07:28:57.613Z,84.88
2019-02-24T07:29:57.584Z,85.63
2019-02-24T07:30:57.503Z,85.35
2019-02-24T07:31:57.343Z,85.44
2019-02-24T07:32:57.221Z,84.78
2019-02-24T07:33:57.099Z,83.88
2019-02-24T07:34:57.130Z,83.59
2019-02-24T07:35:56.980Z,83.22
2019-02-24T07:36:56.901Z,82.28
2019-02-24T07:37:56.781Z,81.23
2019-02-24T07:38:56.818Z,82.56
2019-02-24T07:39:56.663Z,83.26
2019-02-24T07:40:56.568Z,84.11
2019-02-24T07:41:56.434Z,83.26
2019-02-24T07:42:56.353Z,83.26
2019-02-24T07:43:56.261Z,81.84
2019-02-24T07:44:56.191Z,80.99
2019-02-24T07:45:56.084Z,80.24
2019-02-24T07:46:55.985Z,79.48
2019-02-24T07:47:55.889Z,80.33
2019-02-24T07:48:55.817Z,80.46
2019-02-24T07:49:55.761Z,78.39
2019-02-24T07:50:55.631Z,76.78
2019-02-24T07:51:55.553Z,75.07
2019-02-24T07:52:55.543Z,71.90
2019-02-24T07:53:55.390Z,70.95
2019-02-24T07:54:55.288Z,69.82
2019-02-24T07:55:55.203Z,69.15
2019-02-24T07:56:55.119Z,66.41
2019-02-24T07:57:55.041Z,66.25
2019-02-24T07:58:54.947Z,64.90
2019-02-24T07:59:54.870Z,63.23
2019-02-24T08:00:54.781Z,62.47
2019-02-24T08:01:54.702Z,62.18
2019-02-24T08:02:54.618Z,60.58
2019-02-24T08:03:54.533Z,59.81
2019-02-24T08:04:54.450Z,58.68
2019-02-24T08:05:54.354Z,57.45
2019-02-24T08:06:54.274Z,57.10
2019-02-24T08:07:54.200Z,56.79
2019-02-24T08:08:54.117Z,55.40
2019-02-24T08:09:54.018Z,54.45
2019-02-24T08:10:53.942Z,54.64
2019-02-24T08:11:53.849Z,54.83
2019-02-24T08:12:53.768Z,55.80
2019-02-24T08:13:53.726Z,54.26
2019-02-24T08:14:53.609Z,52.96
2019-02-24T08:15:53.519Z,52.39
2019-02-24T08:16:53.433Z,51.82
2019-02-24T08:17:53.354Z,50.59
2019-02-24T08:18:53.305Z,50.21
2019-02-24T08:19:53.237Z,50.78
2019-02-24T08:20:53.171Z,49.76
2019-02-24T08:21:53.012Z,49.48
2019-02-24T08:22:52.929Z,50.90
2019-02-24T08:23:52.855Z,52.23
2019-02-24T08:24:52.763Z,51.76
2019-02-24T08:25:52.710Z,50.90
2019-02-24T08:26:52.659Z,50.81
2019-02-24T08:27:54.067Z,49.48
2019-02-24T08:28:52.426Z,49.10
2019-02-24T08:29:52.343Z,49.01
2019-02-24T08:30:52.262Z,49.13
2019-02-24T08:31:52.184Z,48.08
2019-02-24T08:32:52.097Z,48.15
2019-02-24T08:33:52.026Z,48.08
2019-02-24T08:34:53.031Z,47.71
2019-02-24T08:35:51.850Z,47.77
2019-02-24T08:36:51.760Z,48.94
2019-02-24T08:37:51.720Z,49.48
2019-02-24T08:38:51.600Z,50.90
2019-02-24T08:39:51.528Z,52.64
2019-02-24T08:40:51.437Z,53.30
2019-02-24T08:41:51.411Z,53.11
2019-02-24T08:42:51.266Z,52.92
2019-02-24T08:43:51.190Z,51.78
2019-02-24T08:44:51.102Z,51.21
2019-02-24T08:45:51.054Z,50.07
2019-02-24T08:46:50.943Z,49.32
2019-02-24T08:47:50.857Z,50.36
2019-02-24T08:48:50.783Z,51.52
2019-02-24T08:49:50.704Z,50.10
2019-02-24T08:50:50.610Z,49.24
2019-02-24T08:51:50.571Z,46.49
2019-02-24T08:52:50.453Z,45.73
2019-02-24T08:53:50.416Z,44.69
2019-02-24T08:54:50.321Z,44.02
2019-02-24T08:55:50.214Z,42.98
2019-02-24T08:56:50.114Z,43.84
2019-02-24T08:57:50.061Z,43.65
2019-02-24T08:58:49.975Z,43.46
2019-02-24T08:59:49.935Z,43.27
2019-02-24T09:00:51.330Z,42.51
2019-02-24T09:01:49.744Z,43.17
2019-02-24T09:02:49.663Z,42.60
2019-02-24T09:03:49.572Z,42.68
2019-02-24T09:04:49.509Z,42.30
2019-02-24T09:05:49.386Z,42.39
2019-02-24T09:06:49.306Z,42.41
2019-02-24T09:07:49.233Z,42.30
2019-02-24T09:08:49.139Z,43.08
2019-02-24T09:09:49.074Z,44.60
2019-02-24T09:10:48.976Z,44.79
2019-02-24T09:11:48.895Z,44.79
2019-02-24T09:12:48.847Z,44.88
2019-02-24T09:13:48.794Z,45.07
2019-02-24T09:14:48.647Z,45.64
2019-02-24T09:15:48.647Z,44.69
2019-02-24T09:16:48.498Z,44.12
2019-02-24T09:17:48.429Z,44.14
2019-02-24T09:18:48.372Z,43.36
2019-02-24T09:19:48.284Z,43.46
2019-02-24T09:20:48.272Z,43.93
2019-02-24T09:21:48.119Z,44.40
2019-02-24T09:22:47.999Z,44.60
2019-02-24T09:23:48.003Z,43.34
2019-02-24T09:24:47.883Z,43.62
2019-02-24T09:25:48.001Z,44.01
2019-02-24T09:26:52.405Z,44.38
2019-02-24T09:27:47.705Z,44.76
2019-02-24T09:28:47.640Z,45.52
2019-02-24T09:29:47.481Z,45.81
2019-02-24T09:30:47.351Z,45.43
2019-02-24T09:31:47.609Z,44.10
2019-02-24T09:32:48.158Z,44.20
2019-02-24T09:33:47.421Z,44.67
2019-02-24T09:34:47.174Z,44.95
2019-02-24T09:35:47.229Z,45.14
2019-02-24T09:36:46.903Z,45.62
2019-02-24T09:37:46.850Z,45.24
2019-02-24T09:38:46.757Z,45.24
2019-02-24T09:39:46.703Z,44.48
2019-02-24T09:40:46.583Z,44.20
2019-02-24T09:41:46.513Z,45.43
2019-02-24T09:42:46.438Z,45.52
2019-02-24T09:43:46.473Z,44.85
2019-02-24T09:44:46.326Z,44.57
2019-02-24T09:45:46.436Z,44.38
2019-02-24T09:46:46.156Z,44.29
2019-02-24T09:47:47.039Z,44.20
2019-02-24T09:48:45.953Z,43.15
2019-02-24T09:49:45.938Z,42.01
2019-02-24T09:50:45.794Z,42.11
2019-02-24T09:51:45.690Z,41.82
2019-02-24T09:52:45.578Z,42.39
2019-02-24T09:53:45.482Z,42.30
2019-02-24T09:54:45.399Z,41.63
2019-02-24T09:55:45.369Z,42.01
2019-02-24T09:56:45.239Z,42.20
2019-02-24T09:57:45.162Z,43.43
2019-02-24T09:58:45.138Z,43.72
2019-02-24T09:59:45.006Z,43.82
2019-02-24T10:00:44.967Z,44.20
2019-02-24T10:01:44.891Z,43.82
2019-02-24T10:06:05.804Z,45.43
2019-02-24T10:07:01.719Z,45.14
2019-02-24T10:09:53.224Z,44.67
2019-02-24T10:10:51.146Z,44.57
2019-02-24T10:12:53.149Z,45.05
2019-02-24T10:13:53.066Z,45.14
2019-02-24T10:14:53.118Z,45.81
2019-02-24T10:15:52.944Z,45.24
2019-02-24T10:16:53.168Z,45.05
2019-02-24T10:17:53.098Z,45.71
2019-02-24T10:18:50.499Z,45.36
2019-02-24T10:19:52.514Z,45.45
2019-02-24T10:20:51.200Z,45.64
2019-02-24T10:21:52.678Z,45.07
2019-02-24T10:22:53.489Z,44.88
2019-02-24T10:23:52.385Z,44.12
2019-02-24T10:24:52.025Z,43.93
2019-02-24T10:25:52.074Z,44.69
2019-02-24T10:26:52.162Z,45.64
2019-02-24T10:27:49.923Z,44.02
2019-02-24T10:28:51.693Z,43.17
2019-02-24T10:30:51.603Z,44.31
2019-02-24T10:31:50.735Z,44.02
2019-02-24T10:32:49.715Z,44.02
2019-02-24T10:33:50.651Z,43.84
2019-02-24T10:34:50.630Z,43.93
2019-02-24T10:35:49.509Z,43.36
2019-02-24T10:36:51.564Z,43.46
2019-02-24T10:37:51.515Z,44.02
2019-02-24T10:38:51.592Z,45.07
2019-02-24T10:39:51.530Z,45.54
2019-02-24T10:40:51.484Z,45.64
2019-02-24T10:41:49.030Z,44.40
2019-02-24T10:42:51.503Z,44.02
2019-02-24T10:43:51.454Z,44.24
2019-02-24T10:52:00.278Z,41.22
2019-02-24T10:52:59.659Z,41.60
2019-02-24T10:54:53.252Z,40.20
2019-02-24T10:55:52.833Z,40.20
2019-02-24T10:56:52.702Z,41.43
2019-02-24T10:57:52.626Z,41.62
2019-02-24T10:58:52.563Z,40.86
2019-02-24T10:59:52.937Z,39.62
2019-02-24T11:00:53.348Z,39.06
2019-02-24T11:01:52.818Z,38.70
2019-02-24T11:02:53.195Z,38.79
2019-02-24T11:03:52.516Z,38.98
2019-02-24T11:04:53.078Z,38.39
2019-02-24T11:05:52.458Z,37.25
2019-02-24T11:06:52.851Z,37.35
2019-02-24T11:07:52.828Z,37.06
2019-02-24T11:08:53.253Z,36.40
2019-02-24T11:09:52.624Z,36.76
2019-02-24T11:10:52.033Z,36.57
2019-02-24T11:11:52.433Z,36.66
2019-02-24T11:12:51.455Z,37.33
2019-02-24T11:13:52.914Z,37.69
2019-02-24T11:14:51.250Z,37.97
2019-02-24T11:15:51.169Z,38.73
2019-02-24T11:16:51.102Z,39.23
2019-02-24T11:17:51.002Z,39.79
2019-02-24T11:18:50.956Z,39.89
2019-02-24T11:19:50.844Z,41.50
2019-02-24T11:20:50.786Z,42.46
2019-02-24T11:21:50.684Z,41.50
2019-02-24T11:22:50.608Z,40.84
2019-02-24T11:23:50.530Z,40.37
2019-02-24T11:24:50.472Z,39.89
2019-02-24T11:25:50.368Z,39.15
2019-02-24T11:26:50.281Z,38.56
2019-02-24T11:27:50.207Z,38.68
2019-02-24T11:28:50.127Z,38.87
2019-02-24T11:29:50.042Z,40.29
2019-02-24T11:30:49.971Z,40.95
2019-02-24T11:31:49.886Z,40.77
2019-02-24T11:32:49.813Z,40.86
2019-02-24T11:33:49.741Z,39.91
2019-02-24T11:34:49.656Z,39.81
2019-02-24T11:35:49.569Z,39.53
2019-02-24T11:36:49.488Z,38.60
2019-02-24T11:37:49.415Z,38.31
2019-02-24T11:38:49.326Z,39.26
2019-02-24T11:39:49.249Z,40.79
2019-02-24T11:40:49.184Z,41.93
2019-02-24T11:41:49.084Z,39.84
2019-02-24T11:42:49.009Z,39.17
2019-02-24T11:43:48.933Z,38.60
2019-02-24T11:44:48.852Z,38.03
2019-02-24T11:45:48.764Z,37.44
2019-02-24T11:46:48.692Z,37.54
2019-02-24T11:47:48.610Z,38.01
2019-02-24T11:48:48.538Z,37.15
2019-02-24T11:49:48.454Z,37.25
2019-02-24T11:50:48.392Z,36.96
2019-02-24T11:51:48.297Z,37.06
2019-02-24T11:52:48.214Z,37.15
2019-02-24T11:53:48.301Z,37.63
2019-02-24T11:54:48.059Z,37.63
2019-02-24T11:55:47.978Z,37.92
2019-02-24T11:56:47.966Z,38.10
2019-02-24T11:57:47.818Z,37.44
2019-02-24T11:58:47.739Z,37.35
2019-02-24T11:59:47.656Z,38.70
2019-02-24T12:00:47.578Z,38.31
2019-02-24T12:01:47.945Z,38.12
2019-02-24T12:02:47.466Z,38.41
2019-02-24T12:03:47.341Z,39.07
2019-02-24T12:04:47.319Z,38.81
2019-02-24T12:05:47.191Z,37.76
2019-02-24T12:06:47.106Z,37.95
2019-02-24T12:07:47.019Z,36.60
2019-02-24T12:08:46.951Z,36.43
2019-02-24T12:09:46.914Z,36.41
2019-02-24T12:10:46.785Z,36.22
2019-02-24T12:11:46.708Z,36.41
2019-02-24T12:12:46.634Z,37.37
2019-02-24T12:13:46.556Z,37.46
2019-02-24T12:14:46.471Z,36.53
2019-02-24T12:15:46.397Z,36.43
2019-02-24T12:16:46.344Z,37.29
2019-02-24T12:17:46.230Z,36.81
2019-02-24T12:18:46.196Z,36.33
2019-02-24T12:19:46.074Z,36.53
2019-02-24T12:20:46.002Z,37.10
2019-02-24T12:21:45.920Z,37.19
2019-02-24T12:22:45.880Z,35.78
2019-02-24T12:23:45.764Z,34.83
2019-02-24T12:24:45.681Z,34.45
2019-02-24T12:25:45.611Z,35.21
2019-02-24T12:26:45.529Z,34.83
2019-02-24T12:27:45.458Z,34.17
2019-02-24T12:28:45.422Z,33.78
2019-02-24T12:29:45.313Z,34.55
2019-02-24T12:30:45.209Z,34.64
2019-02-24T12:31:45.136Z,34.45
2019-02-24T12:32:45.053Z,34.17
2019-02-24T12:33:44.972Z,34.83
2019-02-24T12:34:44.896Z,33.31
2019-02-24T12:35:44.839Z,32.17
2019-02-24T12:36:44.803Z,32.17
2019-02-24T12:37:44.655Z,33.12
2019-02-24T12:38:44.599Z,33.22
2019-02-24T12:39:44.554Z,33.40
2019-02-24T12:40:44.474Z,34.55
2019-02-24T12:41:44.347Z,34.83
2019-02-24T12:42:44.271Z,34.83
2019-02-24T12:43:44.195Z,34.18
2019-02-24T12:44:44.111Z,33.61
2019-02-24T12:45:44.044Z,33.23
2019-02-24T12:46:43.993Z,34.18
2019-02-24T12:47:43.883Z,34.75
2019-02-24T12:48:43.806Z,33.80
2019-02-24T12:49:43.771Z,33.23
2019-02-24T12:50:43.707Z,33.15
2019-02-24T12:51:43.573Z,33.23
2019-02-24T12:52:43.490Z,33.14
2019-02-24T12:53:43.407Z,33.99
2019-02-24T12:54:43.334Z,33.61
2019-02-24T12:55:43.265Z,34.67
2019-02-24T12:56:43.173Z,34.77
2019-02-24T12:57:43.102Z,34.96
2019-02-24T12:58:43.040Z,34.67
2019-02-24T12:59:43.034Z,34.11
2019-02-24T13:00:42.927Z,33.44
2019-02-24T13:01:44.240Z,33.15
2019-02-24T13:02:42.705Z,32.96
2019-02-24T13:03:42.676Z,32.87
2019-02-24T13:04:42.620Z,32.96
2019-02-24T13:05:42.506Z,32.96
2019-02-24T13:06:42.426Z,32.28
2019-02-24T13:07:42.361Z,32.68
2019-02-24T13:08:42.303Z,32.47
2019-02-24T13:09:42.168Z,32.87
2019-02-24T13:10:42.088Z,33.63
2019-02-24T13:11:42.006Z,34.67
2019-02-24T13:12:41.934Z,33.91
2019-02-24T13:13:41.857Z,32.87
2019-02-24T13:14:41.787Z,32.77
2019-02-24T13:15:41.696Z,31.63
2019-02-24T13:16:41.621Z,31.72
2019-02-24T13:17:41.550Z,31.44
2019-02-24T13:18:41.504Z,31.72
2019-02-24T13:19:41.448Z,32.10
2019-02-24T13:20:41.328Z,32.20
2019-02-24T13:21:41.264Z,32.01
2019-02-24T13:22:41.164Z,31.15
2019-02-24T13:23:41.075Z,31.34
2019-02-24T13:24:41.031Z,31.24
2019-02-24T13:25:40.999Z,30.10
2019-02-24T13:26:40.892Z,30.29
2019-02-24T13:27:40.766Z,30.29
2019-02-24T13:28:50.142Z,31.34
2019-02-24T13:29:40.608Z,32.48
2019-02-24T13:30:40.546Z,31.44
2019-02-24T13:31:40.513Z,30.96
2019-02-24T13:32:40.385Z,29.91
2019-02-24T13:33:40.298Z,30.29
2019-02-24T13:34:40.330Z,31.05
2019-02-24T13:35:40.757Z,30.68
2019-02-24T13:36:40.069Z,30.49
2019-02-24T13:37:39.989Z,31.24
2019-02-24T13:38:39.925Z,30.49
2019-02-24T13:39:39.839Z,30.77
2019-02-24T13:40:39.762Z,31.44
2019-02-24T13:41:39.726Z,31.72
2019-02-24T13:42:39.605Z,32.58
2019-02-24T13:43:39.586Z,32.03
2019-02-24T13:44:39.520Z,31.07
2019-02-24T13:45:39.372Z,30.12
2019-02-24T13:46:39.352Z,30.31
2019-02-24T13:47:39.276Z,30.98
2019-02-24T13:48:39.143Z,30.31
2019-02-24T13:49:39.059Z,29.83
2019-02-24T13:50:38.993Z,30.50
2019-02-24T13:51:38.906Z,32.12
2019-02-24T13:52:38.835Z,31.93
2019-02-24T13:53:38.801Z,31.07
2019-02-24T13:54:38.719Z,31.36
2019-02-24T13:55:38.648Z,31.74
2019-02-24T13:56:38.564Z,31.16
2019-02-24T13:57:38.507Z,30.42
2019-02-24T13:58:38.416Z,30.04
2019-02-24T13:59:38.293Z,29.27
2019-02-24T14:00:38.218Z,28.80
2019-02-24T14:01:38.136Z,28.42
2019-02-24T14:02:38.062Z,27.75
2019-02-24T14:03:38.040Z,28.80
2019-02-24T14:04:37.902Z,28.32
2019-02-24T14:05:37.831Z,27.27
2019-02-24T14:06:37.762Z,27.27
2019-02-24T14:07:37.675Z,28.03
2019-02-24T14:08:37.596Z,27.08
2019-02-24T14:09:37.527Z,27.27
2019-02-24T14:10:37.445Z,27.27
2019-02-24T14:11:37.379Z,27.18
2019-02-24T14:12:37.292Z,26.79
2019-02-24T14:13:37.209Z,26.98
2019-02-24T14:14:37.137Z,27.66
2019-02-24T14:15:37.066Z,26.51
2019-02-24T14:16:36.979Z,25.84
2019-02-24T14:17:37.066Z,26.79
2019-02-24T14:18:36.834Z,27.08
2019-02-24T14:19:36.765Z,26.79
2019-02-24T14:20:36.677Z,26.61
2019-02-24T14:21:36.625Z,27.27
2019-02-24T14:22:36.575Z,28.03
2019-02-24T14:23:36.449Z,28.62
2019-02-24T14:24:36.371Z,28.53
2019-02-24T14:25:36.331Z,27.67
2019-02-24T14:26:36.213Z,25.67
2019-02-24T14:27:36.221Z,25.76
2019-02-24T14:28:36.074Z,25.65
2019-02-24T14:29:36.017Z,25.28
2019-02-24T14:30:35.943Z,25.19
2019-02-24T14:31:35.829Z,26.62
2019-02-24T14:32:35.750Z,27.95
2019-02-24T14:33:35.672Z,29.77
2019-02-24T14:34:35.603Z,29.96
2019-02-24T14:35:35.524Z,28.91
2019-02-24T14:36:35.449Z,26.52
2019-02-24T14:37:35.369Z,25.84
2019-02-24T14:38:35.288Z,26.24
2019-02-24T14:39:35.222Z,26.43
2019-02-24T14:40:35.137Z,25.65
2019-02-24T14:41:35.097Z,25.18
2019-02-24T14:42:34.989Z,24.98
2019-02-24T14:43:34.904Z,24.41
2019-02-24T14:44:34.832Z,24.79
2019-02-24T14:45:34.752Z,24.89
2019-02-24T14:46:34.719Z,24.69
2019-02-24T14:47:34.630Z,24.22
2019-02-24T14:48:34.528Z,25.56
2019-02-24T14:49:34.450Z,26.79
2019-02-24T14:50:34.382Z,27.08
2019-02-24T14:51:34.297Z,27.48
2019-02-24T14:52:34.238Z,29.10
2019-02-24T14:53:34.138Z,29.38
2019-02-24T14:54:34.059Z,28.81
2019-02-24T14:55:33.997Z,27.95
2019-02-24T14:56:33.906Z,28.53
2019-02-24T14:57:33.834Z,28.91
2019-02-24T14:58:33.751Z,27.67
2019-02-24T14:59:33.679Z,27.19
2019-02-24T15:00:33.612Z,27.38
2019-02-24T15:01:33.527Z,26.52
2019-02-24T15:02:41.984Z,26.52
2019-02-24T15:03:33.378Z,26.14
2019-02-24T15:04:33.298Z,26.52
2019-02-24T15:05:33.215Z,25.76
2019-02-24T15:06:33.202Z,25.18
2019-02-24T15:07:33.212Z,25.56
2019-02-24T15:08:33.039Z,25.37
2019-02-24T15:09:32.930Z,25.46
2019-02-24T15:10:32.831Z,25.94
2019-02-24T15:11:32.764Z,25.65
2019-02-24T15:12:32.677Z,25.27
2019-02-24T15:13:32.603Z,24.79
2019-02-24T15:14:32.531Z,25.37
2019-02-24T15:15:33.421Z,26.03
2019-02-24T15:16:32.396Z,27.27
2019-02-24T15:17:32.294Z,27.27
2019-02-24T15:18:32.253Z,26.79
2019-02-24T15:19:32.185Z,27.75
2019-02-24T15:20:32.076Z,28.42
2019-02-24T15:21:32.005Z,29.27
2019-02-24T15:22:31.911Z,30.52
2019-02-24T15:23:31.834Z,31.18
2019-02-24T15:24:31.776Z,30.52
2019-02-24T15:25:31.678Z,30.80
2019-02-24T15:26:31.608Z,31.18
2019-02-24T15:27:31.523Z,31.64
2019-02-24T15:28:31.458Z,31.36
2019-02-24T15:29:31.381Z,32.23
2019-02-24T15:30:31.302Z,31.07
2019-02-24T15:31:31.218Z,31.45
2019-02-24T15:32:31.167Z,32.12
2019-02-24T15:33:31.065Z,33.18
2019-02-24T15:34:30.997Z,34.33
2019-02-24T15:35:30.909Z,36.33
2019-02-24T15:36:30.856Z,37.48
2019-02-24T15:37:30.785Z,38.53
2019-02-24T15:38:30.683Z,37.19
2019-02-24T15:39:30.614Z,37.46
2019-02-24T15:40:30.531Z,37.46
2019-02-24T15:41:30.473Z,37.55
2019-02-24T15:42:30.371Z,37.57
2019-02-24T15:43:30.296Z,37.93
2019-02-24T15:44:30.224Z,37.46
2019-02-24T15:45:30.143Z,38.22
2019-02-24T15:46:30.061Z,39.75
2019-02-24T15:47:30.048Z,40.32
2019-02-24T15:48:29.934Z,40.58
2019-02-24T15:49:29.835Z,39.73
2019-02-24T15:50:29.755Z,39.92
2019-02-24T15:51:29.946Z,41.06
2019-02-24T15:52:29.604Z,40.87
2019-02-24T15:53:29.522Z,39.82
2019-02-24T15:54:29.451Z,38.58
2019-02-24T15:55:29.378Z,38.01
2019-02-24T15:56:29.295Z,38.18
2019-02-24T15:57:29.214Z,37.90
2019-02-24T15:58:29.135Z,38.09
2019-02-24T15:59:29.059Z,38.47
2019-02-24T16:00:28.982Z,38.56
2019-02-24T16:01:28.901Z,39.97
2019-02-24T16:02:28.827Z,41.21
2019-02-24T16:03:28.748Z,42.16
2019-02-24T16:04:28.674Z,43.21
2019-02-24T16:05:28.596Z,43.49
2019-02-24T16:06:36.903Z,43.95
2019-02-24T16:07:28.473Z,44.33
2019-02-24T16:08:28.366Z,44.33
2019-02-24T16:09:28.317Z,44.42
2019-02-24T16:10:28.216Z,44.33
2019-02-24T16:11:28.131Z,44.23
2019-02-24T16:12:28.048Z,44.13
2019-02-24T16:13:27.995Z,44.71
2019-02-24T16:14:27.904Z,44.90
2019-02-24T16:15:27.816Z,45.47
2019-02-24T16:16:27.751Z,46.04
2019-02-24T16:17:27.663Z,47.09
2019-02-24T16:18:27.583Z,47.09
2019-02-24T16:19:27.510Z,47.94
2019-02-24T16:20:27.430Z,49.08
2019-02-24T16:21:27.349Z,49.94
2019-02-24T16:22:27.272Z,49.56
2019-02-24T16:23:27.193Z,49.15
2019-02-24T16:24:27.114Z,49.15
2019-02-24T16:25:27.038Z,49.35
2019-02-24T16:26:26.960Z,49.15
2019-02-24T16:27:26.878Z,49.35
2019-02-24T16:28:26.819Z,48.77
2019-02-24T16:29:26.742Z,49.06
2019-02-24T16:30:26.648Z,50.27
2019-02-24T16:31:26.563Z,50.56
2019-02-24T16:32:26.492Z,51.89
2019-02-24T16:33:26.406Z,53.41
2019-02-24T16:34:26.333Z,53.59
2019-02-24T16:35:26.251Z,53.12
2019-02-24T16:36:26.173Z,52.84
2019-02-24T16:37:26.090Z,51.12
2019-02-24T16:38:26.017Z,50.46
2019-02-24T16:39:25.934Z,49.98
2019-02-24T16:40:25.856Z,50.08
2019-02-24T16:41:25.777Z,51.10
2019-02-24T16:42:25.743Z,52.62